Time;durP1;ratioP1;P1;durP2;ratioP2;P2;SDS_P1;SDS_P2;PMS_P1;PMS_P2;Temp;Humidity;BMP_temperature;BMP_pressure;BME280_temperature;BME280_humidity;BME280_pressure;Samples;Min_cycle;Max_cycle;Signal;HPM_P1;HPM_P2
2022/01/01 00:00:18;;;;;;;62.22;34.53;;;;;;;;;;5086804;27;20031;-72
2022/01/01 00:02:44;;;;;;;82.90;45.22;;;;;;;;;;5096439;27;20728;-73
2022/01/01 00:05:12;;;;;;;102.18;56.05;;;;;;;;;;5100261;27;20039;-72
2022/01/01 00:07:44;;;;;;;88.63;52.92;;;;;;;;;;5093707;27;20500;-72
2022/01/01 00:10:10;;;;;;;112.72;58.83;;;;;;;;;;5095150;27;20129;-72
2022/01/01 00:12:36;;;;;;;117.95;63.63;;;;;;;;;;5095338;27;20039;-71
2022/01/01 00:15:03;;;;;;;110.32;62.15;;;;;;;;;;5098125;27;20039;-72
2022/01/01 00:17:29;;;;;;;107.07;59.50;;;;;;;;;;5097810;27;20498;-73
2022/01/01 00:19:55;;;;;;;118.00;68.25;;;;;;;;;;5078378;27;20325;-72
2022/01/01 00:22:21;;;;;;;117.88;64.05;;;;;;;;;;5100928;27;20129;-71
2022/01/01 00:24:47;;;;;;;117.75;69.00;;;;;;;;;;5094568;27;20039;-71
2022/01/01 00:27:13;;;;;;;129.35;67.03;;;;;;;;;;5122582;27;20391;-71
2022/01/01 00:29:40;;;;;;;121.35;65.10;;;;;;;;;;5099252;28;20054;-73
2022/01/01 00:32:06;;;;;;;113.85;62.88;;;;;;;;;;5084021;28;20050;-72
2022/01/01 00:34:32;;;;;;;104.05;55.80;;;;;;;;;;5116767;27;20498;-66
2022/01/01 00:36:58;;;;;;;103.60;52.47;;;;;;;;;;5096724;28;20051;-71
2022/01/01 00:39:24;;;;;;;87.82;50.20;;;;;;;;;;5098482;28;20070;-71
2022/01/01 00:41:50;;;;;;;89.25;45.55;;;;;;;;;;5095338;28;20043;-71
2022/01/01 00:44:16;;;;;;;71.93;38.50;;;;;;;;;;5102007;28;20047;-71
2022/01/01 00:46:42;;;;;;;67.68;34.90;;;;;;;;;;5096950;28;20067;-71
2022/01/01 00:49:08;;;;;;;69.70;31.17;;;;;;;;;;5102387;28;20047;-71
2022/01/01 00:51:34;;;;;;;55.90;28.88;;;;;;;;;;5099450;28;20047;-68
2022/01/01 00:54:00;;;;;;;64.47;29.40;;;;;;;;;;5115821;28;20366;-69
2022/01/01 00:56:26;;;;;;;72.85;29.50;;;;;;;;;;5101843;28;20085;-69
2022/01/01 00:58:52;;;;;;;51.92;25.77;;;;;;;;;;5104791;28;20032;-69
2022/01/01 01:01:19;;;;;;;47.03;25.00;;;;;;;;;;5087791;28;20146;-70
2022/01/01 01:03:45;;;;;;;59.28;27.27;;;;;;;;;;5125886;28;20035;-69
2022/01/01 01:06:13;;;;;;;60.75;26.92;;;;;;;;;;5101932;28;20460;-69
2022/01/01 01:08:40;;;;;;;59.03;26.50;;;;;;;;;;5124662;28;20067;-69
2022/01/01 01:11:08;;;;;;;66.55;28.70;;;;;;;;;;5100077;28;20039;-69
2022/01/01 01:13:34;;;;;;;74.05;27.35;;;;;;;;;;5102890;28;20054;-69
2022/01/01 01:16:00;;;;;;;66.07;26.65;;;;;;;;;;5124565;28;20077;-69
2022/01/01 01:18:27;;;;;;;57.22;27.27;;;;;;;;;;5125121;28;20035;-69
2022/01/01 01:20:53;;;;;;;64.30;28.08;;;;;;;;;;5123719;28;20035;-69
2022/01/01 01:23:19;;;;;;;56.03;27.33;;;;;;;;;;5102574;28;20471;-69
2022/01/01 01:25:45;;;;;;;61.75;27.65;;;;;;;;;;5103289;28;20572;-69
2022/01/01 01:28:13;;;;;;;64.18;30.20;;;;;;;;;;5121356;28;20122;-69
2022/01/01 01:30:40;;;;;;;111.00;56.72;;;;;;;;;;5123978;28;20047;-70
2022/01/01 01:33:07;;;;;;;67.63;35.70;;;;;;;;;;5121375;28;20066;-69
2022/01/01 01:35:33;;;;;;;77.88;34.92;;;;;;;;;;5106978;27;20598;-69
2022/01/01 01:37:59;;;;;;;66.72;35.30;;;;;;;;;;5126674;27;20076;-69
2022/01/01 01:40:26;;;;;;;75.63;36.72;;;;;;;;;;5107260;27;20051;-70
2022/01/01 01:42:52;;;;;;;68.78;35.92;;;;;;;;;;5124276;27;20036;-69
2022/01/01 01:45:21;;;;;;;79.75;39.00;;;;;;;;;;5123563;27;20039;-69
2022/01/01 01:47:49;;;;;;;84.68;40.53;;;;;;;;;;5105174;27;20072;-69
2022/01/01 01:50:16;;;;;;;82.95;41.13;;;;;;;;;;5126494;27;20518;-69
2022/01/01 01:52:45;;;;;;;85.07;41.10;;;;;;;;;;5123354;27;20040;-69
2022/01/01 01:55:12;;;;;;;86.78;40.92;;;;;;;;;;5104339;27;20073;-69
2022/01/01 01:57:39;;;;;;;86.32;41.88;;;;;;;;;;5122217;27;20071;-69
2022/01/01 02:00:14;;;;;;;83.50;45.85;;;;;;;;;;5124073;27;20046;-69
2022/01/01 02:02:40;;;;;;;111.53;54.63;;;;;;;;;;5125570;27;20130;-69
2022/01/01 02:05:06;;;;;;;111.00;57.22;;;;;;;;;;5126904;27;20027;-69
2022/01/01 02:07:33;;;;;;;121.60;62.08;;;;;;;;;;5103260;27;20042;-69
2022/01/01 02:09:59;;;;;;;131.73;66.43;;;;;;;;;;5106370;27;21867;-69
2022/01/01 02:12:25;;;;;;;120.55;62.90;;;;;;;;;;5108268;27;20074;-69
2022/01/01 02:15:10;;;;;;;123.35;64.70;;;;;;;;;;5105354;27;20032;-69
2022/01/01 02:17:36;;;;;;;125.28;67.50;;;;;;;;;;5124231;27;20089;-69
2022/01/01 02:20:18;;;;;;;129.45;69.40;;;;;;;;;;5105858;27;20050;-69
2022/01/01 02:22:49;;;;;;;128.98;67.30;;;;;;;;;;5119840;27;20058;-69
2022/01/01 02:25:17;;;;;;;130.05;67.82;;;;;;;;;;5102716;27;20039;-69
2022/01/01 02:27:43;;;;;;;139.02;72.15;;;;;;;;;;5103982;27;20047;-69
2022/01/01 02:30:10;;;;;;;142.23;73.25;;;;;;;;;;5104057;27;20115;-69
2022/01/01 02:32:37;;;;;;;133.20;71.57;;;;;;;;;;5104402;27;20063;-69
2022/01/01 02:35:04;;;;;;;150.00;74.13;;;;;;;;;;5124609;27;20142;-69
2022/01/01 02:37:31;;;;;;;145.98;73.53;;;;;;;;;;5122922;27;20122;-69
2022/01/01 02:39:57;;;;;;;141.10;72.78;;;;;;;;;;5125843;27;20413;-69
2022/01/01 02:42:24;;;;;;;124.40;68.97;;;;;;;;;;5103885;27;20387;-69
2022/01/01 02:44:51;;;;;;;131.93;69.32;;;;;;;;;;5121844;27;20078;-69
2022/01/01 02:47:17;;;;;;;133.20;69.78;;;;;;;;;;5096504;27;20087;-69
2022/01/01 02:49:43;;;;;;;134.13;70.00;;;;;;;;;;5107479;27;20039;-69
2022/01/01 02:52:10;;;;;;;143.82;72.43;;;;;;;;;;5103243;27;20528;-69
2022/01/01 02:54:36;;;;;;;135.63;71.38;;;;;;;;;;5118742;27;20565;-69
2022/01/01 02:57:02;;;;;;;131.00;68.90;;;;;;;;;;5117888;27;20667;-69
2022/01/01 02:59:28;;;;;;;141.80;72.28;;;;;;;;;;5118924;27;20100;-69
2022/01/01 03:01:54;;;;;;;129.73;70.82;;;;;;;;;;5103660;27;20050;-69
2022/01/01 03:04:20;;;;;;;133.75;69.40;;;;;;;;;;5122007;27;20043;-69
2022/01/01 03:06:52;;;;;;;129.85;70.05;;;;;;;;;;5122945;27;20039;-69
2022/01/01 03:09:19;;;;;;;127.95;69.93;;;;;;;;;;5121633;27;20047;-69
2022/01/01 03:11:45;;;;;;;137.18;71.20;;;;;;;;;;5121487;27;21323;-69
2022/01/01 03:14:17;;;;;;;134.85;68.13;;;;;;;;;;5125747;27;20031;-69
2022/01/01 03:16:43;;;;;;;134.93;68.13;;;;;;;;;;5103222;27;20047;-69
2022/01/01 03:19:09;;;;;;;118.38;62.88;;;;;;;;;;5106175;27;20083;-69
2022/01/01 03:21:35;;;;;;;120.80;63.17;;;;;;;;;;5106201;27;20126;-69
2022/01/01 03:24:01;;;;;;;125.05;64.18;;;;;;;;;;5123978;27;20031;-69
2022/01/01 03:26:27;;;;;;;136.35;67.35;;;;;;;;;;5104603;27;20455;-69
2022/01/01 03:28:53;;;;;;;132.05;66.88;;;;;;;;;;5103572;27;20039;-69
2022/01/01 03:31:19;;;;;;;125.43;67.35;;;;;;;;;;5096189;27;20054;-69
2022/01/01 03:33:45;;;;;;;128.70;63.65;;;;;;;;;;5126899;27;20095;-69
2022/01/01 03:36:11;;;;;;;113.85;60.75;;;;;;;;;;5122779;27;20402;-69
2022/01/01 03:38:37;;;;;;;123.25;63.03;;;;;;;;;;5127176;27;20699;-69
2022/01/01 03:41:03;;;;;;;126.22;64.22;;;;;;;;;;5070104;27;20062;-69
2022/01/01 03:43:29;;;;;;;117.28;59.53;;;;;;;;;;5124605;27;20387;-69
2022/01/01 03:45:55;;;;;;;122.93;60.63;;;;;;;;;;5124960;27;20046;-69
2022/01/01 03:48:21;;;;;;;126.57;61.22;;;;;;;;;;5126017;27;20040;-69
2022/01/01 03:50:48;;;;;;;125.38;62.30;;;;;;;;;;5105918;27;20046;-69
2022/01/01 03:53:14;;;;;;;112.88;57.47;;;;;;;;;;5118981;27;20117;-69
2022/01/01 03:55:40;;;;;;;111.05;57.60;;;;;;;;;;5119516;27;20038;-69
2022/01/01 03:58:06;;;;;;;106.05;56.88;;;;;;;;;;5103281;27;20472;-69
2022/01/01 04:00:32;;;;;;;114.30;58.00;;;;;;;;;;5102309;27;20657;-69
2022/01/01 04:03:11;;;;;;;107.13;56.03;;;;;;;;;;5123143;27;20379;-69
2022/01/01 04:05:40;;;;;;;117.55;57.25;;;;;;;;;;5121591;27;20092;-69
2022/01/01 04:08:06;;;;;;;102.55;57.75;;;;;;;;;;5121169;27;20031;-69
2022/01/01 04:10:32;;;;;;;110.53;57.10;;;;;;;;;;5126140;27;20641;-69
2022/01/01 04:12:59;;;;;;;107.97;55.65;;;;;;;;;;5121632;27;20049;-69
2022/01/01 04:15:29;;;;;;;115.65;58.58;;;;;;;;;;5126935;27;20118;-69
2022/01/01 04:18:01;;;;;;;113.25;57.15;;;;;;;;;;5123640;27;20386;-69
2022/01/01 04:20:27;;;;;;;114.30;56.10;;;;;;;;;;5104812;27;20043;-69
2022/01/01 04:22:54;;;;;;;117.03;54.97;;;;;;;;;;5125322;27;20035;-69
2022/01/01 04:25:20;;;;;;;117.65;57.05;;;;;;;;;;5105287;27;20057;-69
2022/01/01 04:27:47;;;;;;;111.22;56.70;;;;;;;;;;5124026;27;20486;-69
2022/01/01 04:30:13;;;;;;;105.70;55.80;;;;;;;;;;5122071;27;20043;-69
2022/01/01 04:32:39;;;;;;;105.43;54.60;;;;;;;;;;5120998;27;20035;-69
2022/01/01 04:35:06;;;;;;;105.03;54.53;;;;;;;;;;5101451;28;20386;-69
2022/01/01 04:37:33;;;;;;;102.03;53.28;;;;;;;;;;5102042;28;20039;-69
2022/01/01 04:39:59;;;;;;;109.97;52.65;;;;;;;;;;5117457;28;20092;-69
2022/01/01 04:42:28;;;;;;;106.50;53.45;;;;;;;;;;5121645;28;20039;-69
2022/01/01 04:44:54;;;;;;;104.70;53.70;;;;;;;;;;5105949;28;20390;-69
2022/01/01 04:47:20;;;;;;;104.57;50.67;;;;;;;;;;5121546;28;20112;-69
2022/01/01 04:49:46;;;;;;;104.07;48.60;;;;;;;;;;5097754;28;20082;-69
2022/01/01 04:52:12;;;;;;;97.28;47.00;;;;;;;;;;5090344;28;20058;-69
2022/01/01 04:54:41;;;;;;;90.85;44.92;;;;;;;;;;5107538;28;20041;-69
2022/01/01 04:57:08;;;;;;;83.82;41.75;;;;;;;;;;5104729;28;20097;-69
2022/01/01 04:59:37;;;;;;;89.03;39.35;;;;;;;;;;5102991;28;20051;-69
2022/01/01 05:02:04;;;;;;;74.65;37.15;;;;;;;;;;5123105;28;20079;-69
2022/01/01 05:04:30;;;;;;;86.43;38.05;;;;;;;;;;5120904;28;20092;-69
2022/01/01 05:06:56;;;;;;;72.78;35.80;;;;;;;;;;5105944;28;20463;-69
2022/01/01 05:09:22;;;;;;;84.97;37.38;;;;;;;;;;5122673;28;20533;-69
2022/01/01 05:11:49;;;;;;;79.68;34.75;;;;;;;;;;5122881;27;20046;-69
2022/01/01 05:14:15;;;;;;;65.32;31.58;;;;;;;;;;5107885;27;20035;-69
2022/01/01 05:16:41;;;;;;;68.75;30.92;;;;;;;;;;5107384;27;20104;-69
2022/01/01 05:19:08;;;;;;;67.43;30.40;;;;;;;;;;5109082;27;20527;-69
2022/01/01 05:21:35;;;;;;;70.13;30.02;;;;;;;;;;5126969;27;20027;-69
2022/01/01 05:24:03;;;;;;;74.13;29.55;;;;;;;;;;5087815;27;20421;-69
2022/01/01 05:26:29;;;;;;;67.10;27.63;;;;;;;;;;5127596;27;20023;-69
2022/01/01 05:28:55;;;;;;;70.38;26.50;;;;;;;;;;5110536;27;20039;-69
2022/01/01 05:31:21;;;;;;;62.03;25.58;;;;;;;;;;5129271;27;20467;-69
2022/01/01 05:33:47;;;;;;;58.17;26.33;;;;;;;;;;5126248;27;20088;-69
2022/01/01 05:36:13;;;;;;;55.53;23.05;;;;;;;;;;5126590;27;20088;-69
2022/01/01 05:38:40;;;;;;;53.92;21.42;;;;;;;;;;5108724;27;20051;-69
2022/01/01 05:41:06;;;;;;;53.05;20.80;;;;;;;;;;5126299;27;20039;-69
2022/01/01 05:43:32;;;;;;;47.17;19.67;;;;;;;;;;5126385;27;20059;-69
2022/01/01 05:45:58;;;;;;;53.65;21.48;;;;;;;;;;5127773;27;20043;-69
2022/01/01 05:48:24;;;;;;;51.08;21.23;;;;;;;;;;5109250;27;20043;-69
2022/01/01 05:50:50;;;;;;;42.97;19.65;;;;;;;;;;5125400;27;20039;-69
2022/01/01 05:53:17;;;;;;;50.90;21.00;;;;;;;;;;5125324;27;20034;-69
2022/01/01 05:55:43;;;;;;;46.22;19.75;;;;;;;;;;5107452;27;20411;-69
2022/01/01 05:58:09;;;;;;;49.95;21.20;;;;;;;;;;5109004;27;20433;-69
2022/01/01 06:00:35;;;;;;;44.63;20.17;;;;;;;;;;5126028;27;20080;-69
2022/01/01 06:03:01;;;;;;;50.42;19.88;;;;;;;;;;5129430;27;20420;-69
2022/01/01 06:05:28;;;;;;;51.30;19.85;;;;;;;;;;5109698;27;20046;-69
2022/01/01 06:07:54;;;;;;;48.95;20.60;;;;;;;;;;5129871;27;20039;-69
2022/01/01 06:10:21;;;;;;;42.33;19.17;;;;;;;;;;5109077;27;20039;-69
2022/01/01 06:12:47;;;;;;;47.05;19.42;;;;;;;;;;5129483;27;20111;-69
2022/01/01 06:15:13;;;;;;;44.13;19.08;;;;;;;;;;5112034;27;20610;-69
2022/01/01 06:17:39;;;;;;;52.22;20.83;;;;;;;;;;5123000;27;20399;-69
2022/01/01 06:20:05;;;;;;;46.30;19.63;;;;;;;;;;5127723;27;20511;-69
2022/01/01 06:22:31;;;;;;;54.22;20.55;;;;;;;;;;5126654;27;20120;-70
2022/01/01 06:24:57;;;;;;;45.20;19.80;;;;;;;;;;5111174;27;20050;-69
2022/01/01 06:27:23;;;;;;;47.95;20.02;;;;;;;;;;5105313;27;20039;-69
2022/01/01 06:29:50;;;;;;;49.60;20.52;;;;;;;;;;5118176;27;20046;-69
2022/01/01 06:32:16;;;;;;;44.95;18.92;;;;;;;;;;5103574;27;20053;-69
2022/01/01 06:34:42;;;;;;;47.00;19.70;;;;;;;;;;5107514;27;20075;-69
2022/01/01 06:37:08;;;;;;;42.67;20.75;;;;;;;;;;5127618;27;20042;-69
2022/01/01 06:39:35;;;;;;;40.15;20.45;;;;;;;;;;5109212;27;20086;-69
2022/01/01 06:42:02;;;;;;;48.45;20.73;;;;;;;;;;5128881;27;20372;-69
2022/01/01 06:44:28;;;;;;;47.83;20.70;;;;;;;;;;5128381;27;20058;-69
2022/01/01 06:46:54;;;;;;;53.03;21.10;;;;;;;;;;5126824;27;20398;-69
2022/01/01 06:49:20;;;;;;;38.15;20.75;;;;;;;;;;5125470;27;20386;-69
2022/01/01 06:51:46;;;;;;;47.70;21.70;;;;;;;;;;5119906;27;20036;-69
2022/01/01 06:54:12;;;;;;;49.35;21.95;;;;;;;;;;5106194;27;20798;-69
2022/01/01 06:56:38;;;;;;;45.28;20.85;;;;;;;;;;5106212;27;20085;-69
2022/01/01 06:59:04;;;;;;;48.05;21.52;;;;;;;;;;5110049;27;20035;-69
2022/01/01 07:01:30;;;;;;;49.22;21.95;;;;;;;;;;5110725;27;20159;-69
2022/01/01 07:03:57;;;;;;;47.55;23.30;;;;;;;;;;5104393;27;20047;-69
2022/01/01 07:06:23;;;;;;;55.03;22.73;;;;;;;;;;5109855;27;20138;-69
2022/01/01 07:08:49;;;;;;;53.40;22.88;;;;;;;;;;5127087;27;20035;-69
2022/01/01 07:11:15;;;;;;;57.15;24.65;;;;;;;;;;5110268;27;20039;-69
2022/01/01 07:13:41;;;;;;;51.80;22.35;;;;;;;;;;5125958;27;20078;-69
2022/01/01 07:16:07;;;;;;;54.70;24.20;;;;;;;;;;5121680;27;20062;-69
2022/01/01 07:18:33;;;;;;;47.58;24.58;;;;;;;;;;5108000;27;20081;-69
2022/01/01 07:20:59;;;;;;;51.50;24.40;;;;;;;;;;5108196;27;20053;-71
2022/01/01 07:23:25;;;;;;;53.50;23.90;;;;;;;;;;5129122;27;20122;-69
2022/01/01 07:25:51;;;;;;;63.10;24.35;;;;;;;;;;5106112;27;20066;-69
2022/01/01 07:28:17;;;;;;;48.67;23.08;;;;;;;;;;5110508;27;20039;-69
2022/01/01 07:30:43;;;;;;;49.28;24.27;;;;;;;;;;5123325;27;20092;-69
2022/01/01 07:33:12;;;;;;;56.47;24.55;;;;;;;;;;5126147;27;20126;-69
2022/01/01 07:35:39;;;;;;;51.00;26.20;;;;;;;;;;5121858;27;20074;-69
2022/01/01 07:38:05;;;;;;;54.00;25.38;;;;;;;;;;5124083;27;20476;-69
2022/01/01 07:40:32;;;;;;;53.63;25.08;;;;;;;;;;5127590;27;20054;-70
2022/01/01 07:42:58;;;;;;;53.70;25.38;;;;;;;;;;5125797;27;20042;-70
2022/01/01 07:45:24;;;;;;;46.83;24.75;;;;;;;;;;5106530;27;20071;-69
2022/01/01 07:47:50;;;;;;;52.30;25.65;;;;;;;;;;5125482;27;20042;-69
2022/01/01 07:50:16;;;;;;;51.35;25.05;;;;;;;;;;5091272;27;20107;-69
2022/01/01 07:52:42;;;;;;;45.22;25.73;;;;;;;;;;5107057;27;20086;-70
2022/01/01 07:55:09;;;;;;;51.70;25.05;;;;;;;;;;5124464;27;20043;-69
2022/01/01 07:57:35;;;;;;;47.33;25.23;;;;;;;;;;5109943;27;20047;-69
2022/01/01 08:00:03;;;;;;;49.35;25.25;;;;;;;;;;5122559;27;20135;-69
2022/01/01 08:02:29;;;;;;;56.83;26.52;;;;;;;;;;5108944;27;20104;-69
2022/01/01 08:04:55;;;;;;;48.78;25.83;;;;;;;;;;5122139;27;20058;-69
2022/01/01 08:07:21;;;;;;;54.88;25.00;;;;;;;;;;5124229;27;20054;-69
2022/01/01 08:09:47;;;;;;;46.42;26.25;;;;;;;;;;5126287;27;20031;-69
2022/01/01 08:12:13;;;;;;;49.00;24.83;;;;;;;;;;5109039;27;20047;-69
2022/01/01 08:14:39;;;;;;;53.92;24.67;;;;;;;;;;5103434;27;20047;-69
2022/01/01 08:17:06;;;;;;;47.97;24.75;;;;;;;;;;5120492;27;20069;-70
2022/01/01 08:19:32;;;;;;;50.33;25.77;;;;;;;;;;5105912;27;20490;-69
2022/01/01 08:21:58;;;;;;;51.42;25.55;;;;;;;;;;5122711;27;21433;-69
2022/01/01 08:24:25;;;;;;;46.92;24.08;;;;;;;;;;5121896;27;20448;-69
2022/01/01 08:26:51;;;;;;;53.95;24.63;;;;;;;;;;5125157;27;20144;-69
2022/01/01 08:29:17;;;;;;;45.42;24.63;;;;;;;;;;5106823;27;20042;-69
2022/01/01 08:31:43;;;;;;;48.58;24.88;;;;;;;;;;5108006;27;20043;-69
2022/01/01 08:34:10;;;;;;;49.88;23.70;;;;;;;;;;5125122;27;20047;-69
2022/01/01 08:36:36;;;;;;;47.70;24.25;;;;;;;;;;5125828;27;20496;-69
2022/01/01 08:39:05;;;;;;;48.35;23.45;;;;;;;;;;5106530;27;20047;-69
2022/01/01 08:41:32;;;;;;;45.88;24.70;;;;;;;;;;5122281;27;20051;-69
2022/01/01 08:43:58;;;;;;;42.63;22.55;;;;;;;;;;5105601;28;20035;-69
2022/01/01 08:46:24;;;;;;;47.53;23.67;;;;;;;;;;5124649;28;20140;-69
2022/01/01 08:48:50;;;;;;;49.22;23.73;;;;;;;;;;5127689;28;20035;-69
2022/01/01 08:51:17;;;;;;;38.55;21.92;;;;;;;;;;5089406;28;20058;-69
2022/01/01 08:53:44;;;;;;;45.92;22.63;;;;;;;;;;5125302;28;20072;-69
2022/01/01 08:56:10;;;;;;;39.83;21.73;;;;;;;;;;5100913;28;20529;-70
2022/01/01 08:58:36;;;;;;;37.30;21.17;;;;;;;;;;5122239;28;20126;-69
2022/01/01 09:01:03;;;;;;;41.53;20.58;;;;;;;;;;5122840;28;20031;-69
2022/01/01 09:03:30;;;;;;;39.00;21.50;;;;;;;;;;5121145;28;20104;-69
2022/01/01 09:05:56;;;;;;;40.65;20.23;;;;;;;;;;5124660;28;20364;-69
2022/01/01 09:08:22;;;;;;;38.33;20.77;;;;;;;;;;5104178;28;20428;-70
2022/01/01 09:10:48;;;;;;;39.78;21.08;;;;;;;;;;5104071;28;20043;-69
2022/01/01 09:13:14;;;;;;;42.85;20.63;;;;;;;;;;5126444;28;20093;-69
2022/01/01 09:15:40;;;;;;;39.60;18.80;;;;;;;;;;5106384;28;20039;-69
2022/01/01 09:18:06;;;;;;;37.28;18.70;;;;;;;;;;5105715;28;20050;-69
2022/01/01 09:20:32;;;;;;;32.50;17.70;;;;;;;;;;5124483;28;20491;-69
2022/01/01 09:22:58;;;;;;;36.20;17.88;;;;;;;;;;5127271;28;20030;-69
2022/01/01 09:25:24;;;;;;;35.63;17.80;;;;;;;;;;5123957;28;20043;-69
2022/01/01 09:27:50;;;;;;;33.70;17.27;;;;;;;;;;5125168;28;20035;-69
2022/01/01 09:30:17;;;;;;;30.40;16.33;;;;;;;;;;5124840;28;20035;-69
2022/01/01 09:32:43;;;;;;;31.02;16.25;;;;;;;;;;5125183;28;20035;-69
2022/01/01 09:35:09;;;;;;;34.90;16.10;;;;;;;;;;5124480;28;20043;-70
2022/01/01 09:37:35;;;;;;;30.40;14.95;;;;;;;;;;5124304;28;20039;-69
2022/01/01 09:40:02;;;;;;;23.85;13.40;;;;;;;;;;5103667;28;20092;-69
2022/01/01 09:42:29;;;;;;;26.77;13.02;;;;;;;;;;5105105;28;20086;-69
2022/01/01 09:44:57;;;;;;;27.10;12.63;;;;;;;;;;5104463;28;20036;-69
2022/01/01 09:47:23;;;;;;;24.95;13.68;;;;;;;;;;5102447;28;20075;-70
2022/01/01 09:49:49;;;;;;;25.67;13.07;;;;;;;;;;5102654;28;20123;-70
2022/01/01 09:52:17;;;;;;;25.30;12.30;;;;;;;;;;5104533;28;20039;-69
2022/01/01 09:54:43;;;;;;;22.08;11.40;;;;;;;;;;5104500;28;20036;-69
2022/01/01 09:57:12;;;;;;;26.38;12.50;;;;;;;;;;5104711;28;20047;-69
2022/01/01 09:59:39;;;;;;;25.92;12.00;;;;;;;;;;5107903;28;20036;-69
2022/01/01 10:02:05;;;;;;;25.45;12.15;;;;;;;;;;5110081;28;20589;-69
2022/01/01 10:04:44;;;;;;;23.13;11.43;;;;;;;;;;5107555;28;20059;-69
2022/01/01 10:07:11;;;;;;;17.80;10.02;;;;;;;;;;5107072;28;20060;-69
2022/01/01 10:09:38;;;;;;;18.15;9.65;;;;;;;;;;5104555;28;20031;-70
2022/01/01 10:12:09;;;;;;;19.45;9.63;;;;;;;;;;5106967;28;20039;-69
2022/01/01 10:14:43;;;;;;;17.23;9.57;;;;;;;;;;5105290;28;21640;-69
2022/01/01 10:17:14;;;;;;;14.70;8.55;;;;;;;;;;5106340;28;20097;-69
2022/01/01 10:19:40;;;;;;;18.88;9.20;;;;;;;;;;5108002;28;20042;-69
2022/01/01 10:22:07;;;;;;;19.27;8.35;;;;;;;;;;5107049;28;20039;-69
2022/01/01 10:27:43;;;;;;;17.63;8.52;;;;;;;;;;5036349;28;20053;-69
2022/01/01 10:30:28;;;;;;;20.80;7.75;;;;;;;;;;5106098;28;20044;-69
2022/01/01 10:33:00;;;;;;;20.48;8.80;;;;;;;;;;5105091;28;20368;-69
2022/01/01 10:35:26;;;;;;;16.58;7.47;;;;;;;;;;5107170;28;20031;-69
2022/01/01 10:37:53;;;;;;;12.00;6.78;;;;;;;;;;5108716;28;20036;-69
2022/01/01 10:40:26;;;;;;;16.23;6.90;;;;;;;;;;5126067;27;20554;-69
2022/01/01 10:42:52;;;;;;;15.98;6.80;;;;;;;;;;5129285;27;20047;-69
2022/01/01 10:45:35;;;;;;;13.45;6.50;;;;;;;;;;5121844;27;20039;-69
2022/01/01 10:48:05;;;;;;;17.35;6.78;;;;;;;;;;5126828;27;20419;-69
2022/01/01 10:50:37;;;;;;;14.93;6.10;;;;;;;;;;5104854;27;20130;-69
2022/01/01 10:53:13;;;;;;;14.82;6.03;;;;;;;;;;5127769;27;20031;-69
2022/01/01 10:55:43;;;;;;;17.58;6.72;;;;;;;;;;5109642;27;20058;-69
2022/01/01 10:58:09;;;;;;;14.30;5.88;;;;;;;;;;5109953;27;20401;-69
2022/01/01 11:00:42;;;;;;;12.25;6.32;;;;;;;;;;5127490;27;20617;-69
2022/01/01 11:03:09;;;;;;;15.35;6.22;;;;;;;;;;5127562;27;20043;-69
2022/01/01 11:05:36;;;;;;;16.42;6.80;;;;;;;;;;5121485;27;20039;-69
2022/01/01 11:08:03;;;;;;;18.27;6.63;;;;;;;;;;5128401;27;20106;-69
2022/01/01 11:10:30;;;;;;;16.17;6.25;;;;;;;;;;5109523;27;20076;-69
2022/01/01 11:12:57;;;;;;;16.15;6.40;;;;;;;;;;5090342;27;20408;-69
2022/01/01 11:15:23;;;;;;;12.85;5.85;;;;;;;;;;5099423;27;20035;-69
2022/01/01 11:17:49;;;;;;;16.77;6.38;;;;;;;;;;5128757;27;20516;-69
2022/01/01 11:20:19;;;;;;;15.23;5.45;;;;;;;;;;5106310;27;20059;-69
2022/01/01 11:22:45;;;;;;;15.85;6.40;;;;;;;;;;5119326;27;20046;-69
2022/01/01 11:25:11;;;;;;;12.80;5.88;;;;;;;;;;5092011;27;20071;-69
2022/01/01 11:27:38;;;;;;;19.10;6.40;;;;;;;;;;5128527;27;20043;-69
2022/01/01 11:30:05;;;;;;;12.98;5.70;;;;;;;;;;5127846;27;20039;-69
2022/01/01 11:32:37;;;;;;;17.50;6.18;;;;;;;;;;5107270;27;20035;-69
2022/01/01 11:35:03;;;;;;;15.27;5.88;;;;;;;;;;5119809;27;20499;-69
2022/01/01 11:37:44;;;;;;;12.85;6.07;;;;;;;;;;5107336;27;20498;-69
2022/01/01 11:40:11;;;;;;;13.55;5.20;;;;;;;;;;5124613;27;20047;-69
2022/01/01 11:42:44;;;;;;;14.93;5.55;;;;;;;;;;5122582;27;20104;-69
2022/01/01 11:45:10;;;;;;;13.05;5.47;;;;;;;;;;5106101;27;20506;-69
2022/01/01 11:47:36;;;;;;;18.30;6.28;;;;;;;;;;5125566;27;20031;-69
2022/01/01 11:50:04;;;;;;;14.70;6.68;;;;;;;;;;5123450;27;20035;-69
2022/01/01 11:52:35;;;;;;;13.85;6.82;;;;;;;;;;5123009;27;20137;-69
2022/01/01 11:55:03;;;;;;;17.55;6.13;;;;;;;;;;5107830;27;20031;-69
2022/01/01 11:57:30;;;;;;;15.18;6.03;;;;;;;;;;5101877;27;20043;-69
2022/01/01 12:00:09;;;;;;;10.65;5.40;;;;;;;;;;5084869;27;20909;-69
2022/01/01 12:02:36;;;;;;;14.77;6.22;;;;;;;;;;5110214;27;20112;-68
2022/01/01 12:05:13;;;;;;;13.13;5.78;;;;;;;;;;5125765;27;20038;-69
2022/01/01 12:07:43;;;;;;;11.63;5.63;;;;;;;;;;5107231;27;20072;-70
2022/01/01 12:10:09;;;;;;;12.75;5.80;;;;;;;;;;5122387;27;20043;-70
2022/01/01 12:12:49;;;;;;;15.93;5.82;;;;;;;;;;5126390;27;20406;-69
2022/01/01 12:15:15;;;;;;;13.85;6.20;;;;;;;;;;5124562;27;20035;-69
2022/01/01 12:17:45;;;;;;;16.23;6.38;;;;;;;;;;5124847;27;20031;-69
2022/01/01 12:20:15;;;;;;;13.80;5.68;;;;;;;;;;5123134;27;20210;-69
2022/01/01 12:22:43;;;;;;;14.10;5.60;;;;;;;;;;5116440;27;20518;-69
2022/01/01 12:25:09;;;;;;;10.85;5.75;;;;;;;;;;5125901;27;20043;-69
2022/01/01 12:27:44;;;;;;;14.95;6.03;;;;;;;;;;5102210;27;20049;-69
2022/01/01 12:30:11;;;;;;;13.93;6.03;;;;;;;;;;5102286;27;20043;-69
2022/01/01 12:32:38;;;;;;;15.25;6.43;;;;;;;;;;5106197;28;20297;-69
2022/01/01 12:35:08;;;;;;;11.80;5.80;;;;;;;;;;5125703;27;20046;-69
2022/01/01 12:37:37;;;;;;;13.77;6.35;;;;;;;;;;5095902;27;20039;-69
2022/01/01 12:40:05;;;;;;;14.82;5.75;;;;;;;;;;5102967;28;20051;-69
2022/01/01 12:42:32;;;;;;;12.77;5.90;;;;;;;;;;5125041;27;20857;-68
2022/01/01 12:44:59;;;;;;;13.75;5.90;;;;;;;;;;5106367;28;20068;-69
2022/01/01 12:47:27;;;;;;;12.90;5.95;;;;;;;;;;5105691;28;20519;-69
2022/01/01 12:49:54;;;;;;;15.57;6.13;;;;;;;;;;5125520;28;20062;-69
2022/01/01 12:52:23;;;;;;;11.80;5.80;;;;;;;;;;5125697;28;20404;-69
2022/01/01 12:54:49;;;;;;;12.68;6.10;;;;;;;;;;5098999;28;20085;-69
2022/01/01 12:57:18;;;;;;;12.32;5.55;;;;;;;;;;5103020;28;20066;-69
2022/01/01 12:59:48;;;;;;;11.52;6.00;;;;;;;;;;5105268;28;20511;-69
2022/01/01 13:02:14;;;;;;;10.18;5.72;;;;;;;;;;5105825;28;20049;-69
2022/01/01 13:04:40;;;;;;;12.25;6.00;;;;;;;;;;5122333;28;20162;-69
2022/01/01 13:07:07;;;;;;;9.90;5.75;;;;;;;;;;5124840;28;20058;-69
2022/01/01 13:09:33;;;;;;;14.88;5.95;;;;;;;;;;5106651;28;20398;-69
2022/01/01 13:12:01;;;;;;;11.45;6.22;;;;;;;;;;5123580;28;20088;-69
2022/01/01 13:14:28;;;;;;;11.93;6.43;;;;;;;;;;5122775;28;20074;-69
2022/01/01 13:16:54;;;;;;;12.85;6.70;;;;;;;;;;5114584;28;20032;-68
2022/01/01 13:19:20;;;;;;;12.70;6.43;;;;;;;;;;5100654;28;20056;-69
2022/01/01 13:21:47;;;;;;;14.45;6.50;;;;;;;;;;5122682;28;20092;-69
2022/01/01 13:24:13;;;;;;;12.63;6.40;;;;;;;;;;5126043;28;20046;-69
2022/01/01 13:26:39;;;;;;;13.38;6.57;;;;;;;;;;5123799;28;20027;-69
2022/01/01 13:29:06;;;;;;;9.95;5.88;;;;;;;;;;5100831;28;20484;-69
2022/01/01 13:31:35;;;;;;;11.65;7.30;;;;;;;;;;5126932;27;20060;-69
2022/01/01 13:34:02;;;;;;;10.88;6.55;;;;;;;;;;5121939;27;20139;-69
2022/01/01 13:36:28;;;;;;;11.93;6.70;;;;;;;;;;5122507;27;20467;-69
2022/01/01 13:38:54;;;;;;;12.40;6.60;;;;;;;;;;5104536;27;20092;-69
2022/01/01 13:41:20;;;;;;;14.15;6.88;;;;;;;;;;5129860;27;20122;-69
2022/01/01 13:43:46;;;;;;;10.65;6.80;;;;;;;;;;5131074;27;20042;-69
2022/01/01 13:46:31;;;;;;;12.90;6.28;;;;;;;;;;5106865;27;20104;-69
2022/01/01 13:48:58;;;;;;;13.00;6.57;;;;;;;;;;5108776;27;20080;-69
2022/01/01 13:51:28;;;;;;;10.15;6.30;;;;;;;;;;5130217;27;20035;-69
2022/01/01 13:54:04;;;;;;;10.68;6.57;;;;;;;;;;5128348;27;20054;-69
2022/01/01 13:56:30;;;;;;;12.23;6.88;;;;;;;;;;5106630;27;20053;-69
2022/01/01 13:58:58;;;;;;;15.65;6.90;;;;;;;;;;5109317;27;20071;-69
2022/01/01 14:01:25;;;;;;;13.23;7.43;;;;;;;;;;5128196;27;20069;-69
2022/01/01 14:03:52;;;;;;;12.23;6.88;;;;;;;;;;5129390;27;20089;-69
2022/01/01 14:06:23;;;;;;;10.40;6.78;;;;;;;;;;5110584;27;20058;-69
2022/01/01 14:08:59;;;;;;;12.57;6.90;;;;;;;;;;5127680;27;20071;-69
2022/01/01 14:11:39;;;;;;;10.55;6.45;;;;;;;;;;5126494;27;20413;-69
2022/01/01 14:14:10;;;;;;;11.05;6.85;;;;;;;;;;5104646;27;20073;-69
2022/01/01 14:16:46;;;;;;;14.20;7.05;;;;;;;;;;5105173;27;20039;-69
2022/01/01 14:19:16;;;;;;;13.30;6.80;;;;;;;;;;5121140;27;20478;-69
2022/01/01 14:21:43;;;;;;;14.27;7.03;;;;;;;;;;5106172;27;20051;-69